Time;durP1;ratioP1;P1;durP2;ratioP2;P2;SDS_P1;SDS_P2;PMS_P1;PMS_P2;Temp;Humidity;BMP_temperature;BMP_pressure;BME280_temperature;BME280_humidity;BME280_pressure;Samples;Min_cycle;Max_cycle;Signal;HPM_P1;HPM_P2
2021/12/10 00:02:22;;;;;;;9.35;7.65;;;9.00;76.90;;;;;;5168725;27;20153;-61
2021/12/10 00:04:48;;;;;;;9.05;7.18;;;9.00;76.90;;;;;;5071600;28;20040;-60
2021/12/10 00:07:19;;;;;;;8.27;7.20;;;9.00;76.90;;;;;;5069798;28;20512;-60
2021/12/10 00:09:51;;;;;;;10.18;7.90;;;9.00;76.90;;;;;;5062425;28;20482;-61
2021/12/10 00:12:27;;;;;;;8.85;7.25;;;9.00;76.90;;;;;;5069659;28;20063;-60
2021/12/10 00:14:53;;;;;;;8.10;7.28;;;9.00;76.90;;;;;;5034393;28;20123;-59
2021/12/10 00:17:21;;;;;;;9.63;7.53;;;9.00;76.90;;;;;;5052536;28;20400;-60
2021/12/10 00:19:52;;;;;;;10.82;7.93;;;9.00;76.90;;;;;;5051505;28;20103;-59
2021/12/10 00:22:29;;;;;;;8.50;7.10;;;9.00;76.80;;;;;;5060469;28;20109;-60
2021/12/10 00:24:55;;;;;;;9.38;7.10;;;9.00;76.80;;;;;;5071578;28;20056;-58
2021/12/10 00:27:28;;;;;;;8.32;7.05;;;9.00;76.90;;;;;;5046098;28;20041;-57
2021/12/10 00:30:04;;;;;;;7.75;6.95;;;9.00;76.90;;;;;;5050798;28;20392;-57
2021/12/10 00:32:35;;;;;;;8.88;7.43;;;9.00;76.90;;;;;;5051626;28;20496;-61
2021/12/10 00:35:04;;;;;;;7.65;6.70;;;9.00;76.90;;;;;;5051295;28;20084;-61
2021/12/10 00:37:30;;;;;;;9.32;7.03;;;9.00;76.80;;;;;;5034552;28;20043;-58
2021/12/10 00:39:58;;;;;;;8.43;7.35;;;9.00;76.90;;;;;;5162471;27;20506;-60
2021/12/10 00:42:28;;;;;;;8.95;6.93;;;9.00;76.90;;;;;;5157710;27;20094;-57
2021/12/10 00:44:55;;;;;;;9.50;6.75;;;9.00;76.90;;;;;;5175804;27;20046;-61
2021/12/10 00:47:21;;;;;;;8.63;7.00;;;9.00;76.90;;;;;;5173661;27;20163;-61
2021/12/10 00:49:46;;;;;;;9.85;7.32;;;9.00;76.90;;;;;;5156244;27;20103;-61
2021/12/10 00:52:14;;;;;;;9.43;7.28;;;9.00;76.90;;;;;;5136162;27;20542;-61
2021/12/10 00:54:40;;;;;;;8.63;7.18;;;9.10;76.90;;;;;;5172111;27;20053;-61
2021/12/10 00:57:08;;;;;;;7.47;6.70;;;9.00;77.50;;;;;;5157141;27;20068;-61
2021/12/10 00:59:34;;;;;;;8.60;7.25;;;9.00;76.90;;;;;;5159824;27;20132;-62
2021/12/10 01:02:00;;;;;;;8.25;7.35;;;9.00;76.90;;;;;;5155651;27;20556;-60
2021/12/10 01:04:30;;;;;;;8.93;7.40;;;9.00;76.90;;;;;;5155001;27;20050;-62
2021/12/10 01:06:58;;;;;;;7.35;6.55;;;9.00;76.90;;;;;;5155451;27;20047;-61
2021/12/10 01:09:30;;;;;;;8.20;6.97;;;9.00;76.90;;;;;;5155170;27;20043;-61
2021/12/10 01:12:15;;;;;;;7.60;6.82;;;9.00;76.90;;;;;;5174367;27;20053;-61
2021/12/10 01:15:07;;;;;;;8.02;6.88;;;9.00;76.90;;;;;;5159450;27;20042;-61
2021/12/10 01:26:11;;;;;;;8.23;6.10;;;9.00;76.90;;;;;;5154447;27;20042;-62
2021/12/10 01:28:40;;;;;;;8.50;6.25;;;9.00;76.80;;;;;;5167569;27;20046;-61
2021/12/10 01:31:07;;;;;;;7.03;6.22;;;9.00;76.80;;;;;;5173336;27;20038;-61
2021/12/10 01:33:33;;;;;;;8.60;6.68;;;9.00;76.80;;;;;;5155817;27;20084;-61
2021/12/10 01:35:59;;;;;;;7.75;6.63;;;9.00;76.80;;;;;;5174780;27;20038;-60
2021/12/10 01:38:26;;;;;;;7.60;6.30;;;9.00;76.90;;;;;;5170687;27;20043;-59
2021/12/10 01:40:57;;;;;;;8.75;7.20;;;9.00;76.80;;;;;;5169024;27;20400;-58
2021/12/10 01:43:23;;;;;;;7.32;6.07;;;9.00;76.80;;;;;;5172489;27;20049;-60
2021/12/10 01:45:53;;;;;;;8.77;6.95;;;9.00;76.80;;;;;;5174473;27;20119;-61
2021/12/10 01:48:27;;;;;;;7.20;6.50;;;9.00;76.90;;;;;;5175065;27;20178;-61
2021/12/10 01:50:54;;;;;;;7.55;6.75;;;9.00;76.90;;;;;;5172404;27;20050;-59
2021/12/10 01:53:24;;;;;;;8.45;6.18;;;9.00;76.90;;;;;;5155157;27;20141;-59
2021/12/10 01:55:52;;;;;;;8.13;7.18;;;9.00;76.80;;;;;;5153795;27;20048;-57
2021/12/10 01:58:22;;;;;;;8.30;7.07;;;9.00;76.80;;;;;;5154067;27;20099;-60
2021/12/10 02:00:54;;;;;;;7.47;6.68;;;9.00;76.80;;;;;;5153576;27;20047;-61
2021/12/10 02:03:20;;;;;;;7.50;6.65;;;9.00;76.80;;;;;;5165949;27;20038;-61
2021/12/10 02:05:46;;;;;;;8.52;6.25;;;9.00;76.80;;;;;;5174104;27;20048;-62
2021/12/10 02:08:12;;;;;;;7.68;6.40;;;9.00;76.80;;;;;;5168476;27;20035;-58
2021/12/10 02:10:37;;;;;;;9.32;6.60;;;9.00;76.80;;;;;;5167524;27;20094;-59
2021/12/10 02:13:03;;;;;;;6.32;5.72;;;9.00;76.80;;;;;;5174675;27;20458;-59
2021/12/10 02:15:29;;;;;;;7.53;6.43;;;9.00;76.80;;;;;;5153684;27;20086;-59
2021/12/10 02:17:57;;;;;;;8.90;6.40;;;9.00;76.80;;;;;;5154428;27;20039;-59
2021/12/10 02:20:51;;;;;;;7.50;6.32;;;9.10;76.90;;;;;;5174747;27;20121;-59
2021/12/10 02:23:18;;;;;;;6.80;6.07;;;9.00;76.80;;;;;;5065348;28;20140;-58
2021/12/10 02:25:44;;;;;;;6.22;5.53;;;9.00;76.80;;;;;;5050839;28;20048;-59
2021/12/10 02:28:12;;;;;;;8.52;6.82;;;9.00;76.80;;;;;;5061985;28;20078;-57
2021/12/10 02:30:40;;;;;;;7.45;6.20;;;9.00;76.90;;;;;;5073636;28;20049;-59
2021/12/10 02:33:06;;;;;;;6.50;5.65;;;9.00;76.80;;;;;;5049520;28;20044;-59
2021/12/10 02:35:33;;;;;;;6.85;6.10;;;9.00;76.80;;;;;;5053862;28;20658;-60
2021/12/10 02:37:59;;;;;;;6.50;5.80;;;9.00;76.80;;;;;;5060153;28;20540;-58
2021/12/10 02:40:27;;;;;;;9.20;6.35;;;9.00;76.80;;;;;;5057624;28;20060;-58
2021/12/10 02:42:53;;;;;;;6.88;5.85;;;9.00;77.40;;;;;;5053329;28;20045;-58
2021/12/10 02:45:21;;;;;;;6.88;6.05;;;9.00;76.80;;;;;;5037810;28;20041;-59
2021/12/10 02:47:48;;;;;;;7.75;6.07;;;9.00;76.80;;;;;;5058490;28;20055;-58
2021/12/10 02:50:17;;;;;;;7.10;5.80;;;9.00;76.80;;;;;;5073169;28;20060;-57
2021/12/10 02:52:43;;;;;;;8.02;6.45;;;9.00;76.80;;;;;;5071718;28;20094;-58
2021/12/10 02:55:10;;;;;;;8.02;6.43;;;9.00;76.80;;;;;;5053790;28;20041;-58
2021/12/10 02:57:38;;;;;;;7.28;5.93;;;9.10;76.80;;;;;;5036374;28;20535;-58
2021/12/10 03:00:12;;;;;;;7.35;5.78;;;9.00;76.80;;;;;;5076631;28;20368;-58
2021/12/10 03:02:38;;;;;;;6.45;5.35;;;9.00;76.80;;;;;;5116097;27;20043;-60
2021/12/10 03:05:06;;;;;;;6.53;5.53;;;9.00;76.80;;;;;;5117108;27;20039;-62
2021/12/10 03:07:34;;;;;;;6.57;5.75;;;9.00;76.80;;;;;;5115863;28;20036;-61
2021/12/10 03:10:00;;;;;;;6.88;5.93;;;9.00;76.80;;;;;;5134497;27;20043;-61
2021/12/10 03:12:26;;;;;;;6.72;6.00;;;9.00;76.80;;;;;;5135915;27;20043;-62
2021/12/10 03:14:54;;;;;;;6.47;5.85;;;9.00;76.80;;;;;;5131062;27;20489;-61
2021/12/10 03:17:24;;;;;;;6.03;5.38;;;9.00;76.80;;;;;;5116689;27;20084;-61
2021/12/10 03:19:50;;;;;;;7.63;5.57;;;9.00;76.80;;;;;;5115710;28;20111;-61
2021/12/10 03:22:16;;;;;;;6.88;5.60;;;9.00;76.80;;;;;;5130783;27;20089;-61
2021/12/10 03:24:42;;;;;;;6.20;5.47;;;9.00;76.70;;;;;;5115373;28;20067;-61
2021/12/10 03:27:10;;;;;;;7.38;5.90;;;9.00;76.80;;;;;;5115988;27;20042;-58
2021/12/10 03:29:39;;;;;;;6.18;5.57;;;9.00;76.80;;;;;;5115414;28;20039;-61
2021/12/10 03:32:10;;;;;;;6.95;6.00;;;9.00;76.80;;;;;;5125093;27;20503;-60
2021/12/10 03:34:36;;;;;;;7.80;6.13;;;9.00;76.80;;;;;;5128079;27;20058;-60
2021/12/10 03:37:03;;;;;;;9.05;6.40;;;9.00;76.80;;;;;;5133196;27;20051;-59
2021/12/10 03:39:29;;;;;;;6.32;5.50;;;9.00;76.80;;;;;;5130129;27;20120;-61
2021/12/10 03:41:57;;;;;;;5.90;5.30;;;9.00;76.80;;;;;;5114724;27;20130;-61
2021/12/10 03:44:23;;;;;;;6.35;5.40;;;9.00;76.80;;;;;;5125954;27;20375;-60
2021/12/10 03:46:50;;;;;;;5.78;5.18;;;9.00;76.70;;;;;;5135519;27;20543;-61
2021/12/10 03:49:17;;;;;;;6.22;5.57;;;9.00;76.80;;;;;;5115697;27;20384;-60
2021/12/10 03:51:43;;;;;;;6.85;5.78;;;9.00;76.80;;;;;;5132955;27;20145;-60
2021/12/10 03:54:09;;;;;;;5.88;5.28;;;9.00;76.70;;;;;;5135619;27;20122;-57
2021/12/10 03:56:36;;;;;;;6.22;5.63;;;9.00;76.80;;;;;;5134690;27;20043;-61
2021/12/10 03:59:05;;;;;;;6.25;5.65;;;9.00;76.70;;;;;;5149786;27;20478;-59
2021/12/10 04:01:34;;;;;;;8.00;5.95;;;9.00;76.80;;;;;;5154959;27;20059;-61
2021/12/10 04:04:02;;;;;;;6.28;5.68;;;9.00;76.70;;;;;;5139237;27;20058;-57
2021/12/10 04:06:28;;;;;;;6.10;5.47;;;9.00;76.70;;;;;;5135267;27;20565;-61
2021/12/10 04:08:56;;;;;;;6.95;5.47;;;9.00;76.70;;;;;;5149145;27;20027;-60
2021/12/10 04:11:22;;;;;;;6.03;5.43;;;9.00;76.80;;;;;;5155213;27;20047;-57
2021/12/10 04:13:50;;;;;;;6.80;5.50;;;9.00;76.70;;;;;;5140831;27;20035;-59
2021/12/10 04:16:17;;;;;;;5.72;5.07;;;8.90;76.70;;;;;;5135212;27;20092;-58
2021/12/10 04:18:45;;;;;;;7.20;5.50;;;9.00;76.70;;;;;;5146227;27;20043;-59
2021/12/10 04:21:12;;;;;;;6.20;5.07;;;9.00;76.70;;;;;;5156043;27;20398;-60
2021/12/10 04:23:41;;;;;;;6.75;5.20;;;9.00;76.70;;;;;;5155381;27;20039;-60
2021/12/10 04:26:09;;;;;;;6.07;5.47;;;9.00;76.70;;;;;;5154655;27;20575;-59
2021/12/10 04:28:35;;;;;;;6.28;5.15;;;9.00;76.80;;;;;;5142626;27;20039;-59
2021/12/10 04:31:01;;;;;;;5.85;5.25;;;9.00;76.70;;;;;;5136006;27;20039;-58
2021/12/10 04:33:27;;;;;;;5.90;5.10;;;9.00;76.70;;;;;;5134950;27;20035;-59
2021/12/10 04:35:57;;;;;;;6.32;5.68;;;9.00;76.70;;;;;;5147773;27;20100;-59
2021/12/10 04:38:26;;;;;;;5.68;5.05;;;9.00;76.70;;;;;;5144371;27;20039;-60
2021/12/10 04:40:56;;;;;;;6.22;4.95;;;9.00;76.70;;;;;;5143042;27;20395;-58
2021/12/10 04:43:24;;;;;;;5.38;4.88;;;9.00;76.70;;;;;;5155174;27;20042;-60
2021/12/10 04:45:53;;;;;;;6.47;5.18;;;9.00;76.70;;;;;;5155086;27;20053;-58
2021/12/10 04:48:19;;;;;;;6.88;5.40;;;9.10;76.80;;;;;;5134335;27;20062;-61
2021/12/10 04:50:45;;;;;;;6.40;5.75;;;9.00;76.70;;;;;;5145640;27;20042;-57
2021/12/10 04:53:11;;;;;;;6.13;5.20;;;9.00;76.70;;;;;;5155266;27;20114;-58
2021/12/10 04:55:38;;;;;;;5.40;4.90;;;9.00;76.70;;;;;;5154727;27;20059;-58
2021/12/10 04:58:04;;;;;;;5.45;4.85;;;9.00;76.60;;;;;;5155188;27;20043;-58
2021/12/10 05:00:39;;;;;;;6.72;5.28;;;9.00;76.70;;;;;;5154621;27;20080;-59
2021/12/10 05:03:08;;;;;;;6.95;4.75;;;9.00;76.60;;;;;;5164747;27;20039;-56
2021/12/10 05:05:35;;;;;;;7.00;5.25;;;9.00;76.60;;;;;;5175512;27;20068;-58
2021/12/10 05:08:03;;;;;;;5.90;5.13;;;9.00;76.60;;;;;;5175329;27;20125;-58
2021/12/10 05:10:28;;;;;;;5.72;4.93;;;9.00;76.60;;;;;;5157282;27;20470;-58
2021/12/10 05:12:54;;;;;;;6.03;5.10;;;9.00;76.60;;;;;;5155664;27;20042;-60
2021/12/10 05:15:24;;;;;;;5.47;4.80;;;9.00;76.60;;;;;;5154608;27;20417;-61
2021/12/10 05:17:52;;;;;;;5.90;5.30;;;9.00;76.60;;;;;;5160473;27;20083;-58
2021/12/10 05:20:25;;;;;;;6.43;5.68;;;9.00;76.60;;;;;;5175073;27;20502;-56
2021/12/10 05:22:51;;;;;;;6.10;5.13;;;9.00;76.60;;;;;;5168877;27;20074;-61
2021/12/10 05:25:18;;;;;;;5.72;5.22;;;9.00;76.60;;;;;;5154558;27;20194;-61
2021/12/10 05:27:44;;;;;;;5.90;5.35;;;9.00;76.60;;;;;;5159527;27;20505;-61
2021/12/10 05:30:13;;;;;;;7.93;6.03;;;9.00;76.60;;;;;;5175409;27;20068;-61
2021/12/10 05:32:41;;;;;;;6.80;5.78;;;9.00;76.60;;;;;;5169644;27;20122;-61
2021/12/10 05:35:07;;;;;;;6.80;5.22;;;9.00;76.60;;;;;;5136507;27;20050;-62
2021/12/10 05:37:35;;;;;;;6.13;5.28;;;9.00;76.60;;;;;;5154335;27;20054;-61
2021/12/10 05:40:00;;;;;;;6.93;5.63;;;9.00;76.60;;;;;;5158239;27;20064;-60
2021/12/10 05:42:26;;;;;;;6.68;5.43;;;9.00;76.60;;;;;;5154173;27;20115;-62
2021/12/10 05:44:52;;;;;;;6.85;5.47;;;9.00;76.60;;;;;;5170431;27;20034;-60
2021/12/10 05:47:19;;;;;;;7.75;5.00;;;9.00;76.50;;;;;;5174957;27;20046;-62
2021/12/10 05:49:44;;;;;;;6.88;5.38;;;9.00;76.60;;;;;;5154988;27;20046;-60
2021/12/10 05:52:11;;;;;;;6.88;5.43;;;9.00;76.50;;;;;;5174059;27;20454;-59
2021/12/10 05:54:37;;;;;;;6.65;4.95;;;9.10;76.60;;;;;;5154775;27;20070;-59
2021/12/10 05:57:04;;;;;;;5.85;5.22;;;9.00;76.50;;;;;;5154801;27;20042;-60
2021/12/10 05:59:30;;;;;;;6.45;5.20;;;9.00;76.50;;;;;;5154060;27;20133;-61
2021/12/10 06:01:56;;;;;;;6.07;5.47;;;9.00;76.50;;;;;;5154565;27;20474;-61
2021/12/10 06:04:27;;;;;;;6.13;5.32;;;9.00;76.50;;;;;;5134634;27;20046;-61
2021/12/10 06:06:54;;;;;;;6.20;5.60;;;9.00;76.50;;;;;;5146716;27;20038;-60
2021/12/10 06:09:20;;;;;;;6.30;4.78;;;9.00;76.50;;;;;;5153137;27;20046;-61
2021/12/10 06:11:45;;;;;;;6.30;5.55;;;9.00;76.50;;;;;;5153353;27;20042;-61
2021/12/10 06:14:11;;;;;;;7.63;6.00;;;9.00;76.50;;;;;;5153728;27;20043;-61
2021/12/10 06:16:37;;;;;;;5.90;5.32;;;9.00;76.50;;;;;;5153098;27;20133;-60
2021/12/10 06:19:05;;;;;;;6.72;5.88;;;9.00;76.50;;;;;;5153598;27;20070;-61
2021/12/10 06:21:33;;;;;;;6.35;5.68;;;9.10;76.60;;;;;;5153206;27;20043;-60
2021/12/10 06:23:59;;;;;;;5.75;5.10;;;9.00;76.50;;;;;;5153558;27;20551;-59
2021/12/10 06:26:25;;;;;;;6.00;5.32;;;9.00;76.50;;;;;;5136471;27;20056;-59
2021/12/10 06:28:51;;;;;;;6.00;5.40;;;9.00;76.50;;;;;;5169516;27;20393;-62
2021/12/10 06:31:19;;;;;;;6.93;5.60;;;9.00;76.50;;;;;;5155502;27;20438;-59
2021/12/10 06:33:45;;;;;;;6.45;5.82;;;9.00;76.50;;;;;;5174181;27;20087;-60
2021/12/10 06:36:12;;;;;;;7.45;5.75;;;9.00;76.50;;;;;;5174146;27;20042;-60
2021/12/10 06:38:38;;;;;;;6.60;5.82;;;9.00;76.40;;;;;;5152872;27;20042;-59
2021/12/10 06:41:04;;;;;;;6.50;5.55;;;9.00;76.40;;;;;;5159880;27;20050;-61
2021/12/10 06:43:30;;;;;;;7.20;5.88;;;9.00;76.40;;;;;;5161644;27;20042;-58
2021/12/10 06:45:56;;;;;;;7.00;5.72;;;9.00;76.40;;;;;;5153622;27;20485;-59
2021/12/10 06:48:25;;;;;;;7.20;5.78;;;9.00;76.40;;;;;;5154789;27;20035;-61
2021/12/10 06:50:56;;;;;;;6.75;5.93;;;9.10;76.50;;;;;;5153188;27;20063;-60
2021/12/10 06:53:24;;;;;;;6.75;5.70;;;9.00;76.40;;;;;;5152551;27;20050;-57
2021/12/10 06:55:50;;;;;;;6.47;5.38;;;9.00;76.40;;;;;;5153316;27;20047;-58
2021/12/10 06:58:17;;;;;;;6.97;6.28;;;9.00;76.40;;;;;;5155333;27;20042;-59
2021/12/10 07:00:53;;;;;;;7.45;6.30;;;9.00;76.40;;;;;;5153260;27;20041;-59
2021/12/10 07:03:23;;;;;;;6.60;5.90;;;9.10;76.50;;;;;;5153250;27;20039;-59
2021/12/10 07:05:49;;;;;;;6.20;5.60;;;9.00;76.40;;;;;;5153131;27;20074;-61
2021/12/10 07:08:17;;;;;;;7.28;5.65;;;9.00;76.40;;;;;;5166517;27;20039;-61
2021/12/10 07:10:43;;;;;;;6.40;5.80;;;9.10;76.40;;;;;;5170928;27;20552;-57
2021/12/10 07:13:09;;;;;;;9.95;6.10;;;9.10;76.40;;;;;;5176289;27;20038;-60
2021/12/10 07:15:38;;;;;;;7.53;5.63;;;9.00;76.40;;;;;;5175742;27;20367;-58
2021/12/10 07:18:04;;;;;;;6.45;5.82;;;9.00;76.40;;;;;;5165133;27;20090;-58
2021/12/10 07:20:30;;;;;;;9.45;6.10;;;9.00;76.40;;;;;;5156514;27;20139;-59
2021/12/10 07:22:56;;;;;;;7.15;5.93;;;9.00;76.40;;;;;;5169352;27;20039;-58
2021/12/10 07:25:26;;;;;;;6.13;5.53;;;9.00;76.40;;;;;;5136751;27;20042;-57
2021/12/10 07:27:52;;;;;;;6.45;5.75;;;9.00;77.00;;;;;;5156717;27;20118;-58
2021/12/10 07:30:21;;;;;;;6.88;6.00;;;9.00;76.40;;;;;;5138882;27;20046;-60
2021/12/10 07:32:47;;;;;;;5.82;5.30;;;9.00;76.30;;;;;;5162253;27;20038;-57
2021/12/10 07:35:14;;;;;;;6.75;5.78;;;9.00;76.30;;;;;;5176852;27;20535;-58
2021/12/10 07:37:40;;;;;;;6.20;5.32;;;9.00;76.40;;;;;;5177519;27;20045;-59
2021/12/10 07:40:10;;;;;;;7.00;5.47;;;9.00;76.50;;;;;;5168946;27;20035;-61
2021/12/10 07:42:36;;;;;;;6.15;5.55;;;9.00;76.30;;;;;;5157842;27;20141;-60
2021/12/10 07:45:05;;;;;;;5.95;5.32;;;9.00;76.30;;;;;;5137673;27;20050;-61
2021/12/10 07:47:35;;;;;;;6.32;5.65;;;9.00;76.30;;;;;;5156674;27;20382;-59
2021/12/10 07:50:01;;;;;;;6.18;5.43;;;9.10;76.40;;;;;;5169172;27;20043;-61
2021/12/10 07:52:28;;;;;;;6.95;5.43;;;9.00;76.30;;;;;;5157454;27;20053;-59
2021/12/10 07:54:55;;;;;;;5.65;5.15;;;9.00;76.30;;;;;;5156280;27;20160;-61
2021/12/10 07:57:22;;;;;;;6.90;5.50;;;9.00;76.30;;;;;;5175845;27;20038;-61
2021/12/10 07:59:49;;;;;;;5.75;5.15;;;9.00;76.30;;;;;;5172915;27;20346;-60
2021/12/10 08:02:16;;;;;;;6.43;5.60;;;9.10;76.40;;;;;;5168610;27;20043;-60
2021/12/10 08:04:42;;;;;;;6.53;5.88;;;9.00;76.30;;;;;;5157001;27;20122;-61
2021/12/10 08:07:08;;;;;;;6.20;5.40;;;9.00;76.30;;;;;;5156156;27;20041;-61
2021/12/10 08:09:34;;;;;;;6.15;5.53;;;9.00;76.30;;;;;;5152691;27;20043;-61
2021/12/10 08:12:00;;;;;;;5.72;5.13;;;9.00;76.20;;;;;;5173446;27;20042;-61
2021/12/10 08:14:26;;;;;;;6.70;5.00;;;9.00;76.20;;;;;;5174974;27;20470;-61
2021/12/10 08:16:51;;;;;;;6.70;5.35;;;9.00;76.20;;;;;;5176817;27;20079;-60
2021/12/10 08:19:17;;;;;;;6.22;5.63;;;9.00;76.30;;;;;;5176466;27;20409;-62
2021/12/10 08:21:43;;;;;;;6.68;5.70;;;9.00;76.20;;;;;;5157937;27;20508;-62
2021/12/10 08:24:09;;;;;;;6.38;5.65;;;9.00;76.20;;;;;;5154916;27;20048;-62
2021/12/10 08:26:36;;;;;;;5.93;5.32;;;9.00;76.20;;;;;;5176679;27;20086;-60
2021/12/10 08:29:03;;;;;;;6.05;5.45;;;9.00;76.30;;;;;;5159500;27;20087;-60
2021/12/10 08:31:29;;;;;;;6.18;5.57;;;9.00;76.20;;;;;;5155692;27;20046;-62
2021/12/10 08:33:55;;;;;;;6.00;5.13;;;9.00;76.20;;;;;;5171768;27;20030;-61
2021/12/10 08:36:22;;;;;;;7.13;5.28;;;9.00;76.20;;;;;;5175579;27;20095;-61
2021/12/10 08:38:49;;;;;;;6.07;5.40;;;9.00;76.20;;;;;;5176216;27;20432;-58
2021/12/10 08:41:21;;;;;;;5.88;5.13;;;9.00;76.30;;;;;;5163901;27;20064;-61
2021/12/10 08:43:47;;;;;;;6.05;5.22;;;9.00;76.20;;;;;;5155460;27;20159;-61
2021/12/10 08:46:15;;;;;;;6.53;5.60;;;9.00;76.20;;;;;;5156880;27;20510;-61
2021/12/10 08:48:42;;;;;;;6.20;5.18;;;9.00;76.20;;;;;;5155592;27;20447;-61
2021/12/10 08:51:21;;;;;;;5.80;5.20;;;9.00;76.20;;;;;;5163788;27;20062;-60
2021/12/10 08:53:48;;;;;;;6.00;5.40;;;9.00;76.20;;;;;;5174597;27;20084;-61
2021/12/10 08:56:13;;;;;;;5.60;5.00;;;9.00;76.20;;;;;;5155114;27;20046;-60
2021/12/10 08:58:39;;;;;;;6.40;5.55;;;9.00;76.20;;;;;;5162485;27;20050;-60
2021/12/10 09:01:13;;;;;;;5.57;4.97;;;9.00;76.20;;;;;;5155994;27;20406;-60
2021/12/10 09:03:39;;;;;;;5.55;4.97;;;9.00;76.20;;;;;;5164246;27;20042;-61
2021/12/10 09:06:07;;;;;;;6.82;5.30;;;9.00;76.20;;;;;;5155487;27;20100;-61
2021/12/10 09:08:33;;;;;;;5.65;5.15;;;9.00;76.30;;;;;;5175973;27;20030;-61
2021/12/10 09:11:00;;;;;;;5.53;5.03;;;9.00;76.20;;;;;;5153661;27;20433;-61
2021/12/10 09:13:26;;;;;;;5.95;5.35;;;9.00;76.20;;;;;;5155338;27;20042;-61
2021/12/10 09:15:57;;;;;;;6.13;5.38;;;9.00;76.20;;;;;;5156089;27;20048;-61
2021/12/10 09:18:24;;;;;;;6.35;5.35;;;9.00;76.20;;;;;;5174102;27;20115;-59
2021/12/10 09:20:55;;;;;;;5.63;4.85;;;9.00;76.20;;;;;;5175860;27;20180;-60
2021/12/10 09:23:24;;;;;;;5.88;4.90;;;9.00;76.20;;;;;;5175231;27;20492;-61
2021/12/10 09:25:52;;;;;;;5.18;4.68;;;9.00;76.20;;;;;;5157205;27;20046;-61
2021/12/10 09:28:18;;;;;;;5.25;4.70;;;9.00;76.30;;;;;;5155707;27;20482;-61
2021/12/10 09:30:47;;;;;;;5.13;4.20;;;9.00;76.20;;;;;;5171439;27;20052;-61
2021/12/10 09:33:13;;;;;;;5.20;4.70;;;9.00;76.20;;;;;;5165682;27;20050;-61
2021/12/10 09:35:38;;;;;;;4.90;4.45;;;9.00;76.30;;;;;;5144413;27;20046;-60
2021/12/10 09:38:06;;;;;;;5.47;4.70;;;9.00;76.30;;;;;;5161319;27;20053;-61
2021/12/10 09:40:38;;;;;;;6.95;5.05;;;9.00;76.30;;;;;;5154985;27;20046;-61
2021/12/10 09:43:06;;;;;;;5.57;4.63;;;9.00;76.30;;;;;;5154629;27;20088;-60
2021/12/10 09:45:34;;;;;;;4.90;4.40;;;9.00;76.20;;;;;;5173574;27;20046;-61
2021/12/10 09:48:01;;;;;;;4.97;4.47;;;9.00;76.20;;;;;;5174690;27;20046;-61
2021/12/10 09:50:30;;;;;;;5.07;4.55;;;9.00;76.20;;;;;;5173423;27;20050;-61
2021/12/10 09:52:59;;;;;;;6.53;4.57;;;9.00;76.20;;;;;;5166158;27;20532;-61
2021/12/10 09:55:27;;;;;;;4.45;4.05;;;9.00;76.20;;;;;;5166694;27;20050;-59
2021/12/10 09:57:54;;;;;;;5.35;4.70;;;9.00;76.20;;;;;;5118708;27;20046;-61
2021/12/10 10:00:40;;;;;;;5.40;4.30;;;9.00;76.20;;;;;;5170699;27;20042;-61
2021/12/10 10:03:10;;;;;;;5.22;4.72;;;9.00;76.20;;;;;;5159550;27;20038;-61
2021/12/10 10:05:37;;;;;;;6.32;4.40;;;9.00;76.20;;;;;;5174739;27;20526;-60
2021/12/10 10:08:07;;;;;;;5.47;4.97;;;9.00;76.20;;;;;;5172718;27;20042;-59
2021/12/10 10:10:36;;;;;;;4.80;4.30;;;9.00;76.20;;;;;;5153757;27;20038;-58
2021/12/10 10:13:05;;;;;;;5.97;4.88;;;9.00;76.20;;;;;;5157932;27;20047;-60
2021/12/10 10:15:34;;;;;;;5.82;4.35;;;9.00;76.20;;;;;;5156517;27;20038;-58
2021/12/10 10:18:08;;;;;;;5.95;4.80;;;9.00;76.20;;;;;;5153968;27;20045;-61
2021/12/10 10:20:38;;;;;;;4.80;4.15;;;9.00;76.20;;;;;;5154721;27;20061;-60
2021/12/10 10:23:05;;;;;;;5.20;4.35;;;9.00;76.20;;;;;;5162149;27;20474;-59
2021/12/10 10:25:32;;;;;;;4.85;4.43;;;9.00;76.20;;;;;;5156159;27;20106;-60
2021/12/10 10:27:57;;;;;;;4.95;4.45;;;9.00;76.30;;;;;;5166807;27;20050;-60
2021/12/10 10:30:29;;;;;;;6.60;5.13;;;9.00;76.30;;;;;;5155409;27;20035;-60
2021/12/10 10:32:58;;;;;;;5.20;4.70;;;9.00;76.20;;;;;;5155957;27;20060;-61
2021/12/10 10:35:31;;;;;;;4.55;4.15;;;9.00;76.30;;;;;;5174203;27;20042;-60
2021/12/10 10:37:59;;;;;;;4.80;4.18;;;9.00;76.30;;;;;;5172521;27;20447;-61
2021/12/10 10:40:31;;;;;;;4.95;4.43;;;9.00;76.30;;;;;;5158794;27;20125;-60
2021/12/10 10:42:58;;;;;;;5.38;4.57;;;9.00;76.20;;;;;;5173092;27;20114;-61
2021/12/10 10:45:27;;;;;;;5.07;4.28;;;9.00;76.30;;;;;;5174970;27;20038;-60
2021/12/10 10:47:56;;;;;;;5.18;4.50;;;9.00;76.30;;;;;;5175817;27;20049;-61
2021/12/10 10:50:29;;;;;;;5.30;4.32;;;9.00;76.30;;;;;;5178551;27;20401;-60
2021/12/10 10:53:05;;;;;;;4.35;3.63;;;9.00;76.30;;;;;;5167805;27;20479;-59
2021/12/10 10:55:35;;;;;;;4.72;4.15;;;9.00;76.30;;;;;;5157571;27;20046;-59
2021/12/10 10:58:06;;;;;;;5.47;4.15;;;9.00;76.30;;;;;;5157619;27;20047;-61
2021/12/10 11:00:51;;;;;;;4.97;4.47;;;9.00;77.00;;;;;;5157118;27;20455;-60
2021/12/10 11:03:22;;;;;;;4.53;4.13;;;8.90;76.30;;;;;;5140290;27;20133;-59
2021/12/10 11:05:56;;;;;;;5.03;4.18;;;9.00;76.30;;;;;;5157117;27;20774;-60
2021/12/10 11:08:44;;;;;;;4.50;3.88;;;9.00;76.30;;;;;;5173818;27;20469;-61
2021/12/10 11:11:09;;;;;;;5.53;4.30;;;9.00;76.30;;;;;;5170901;27;20034;-59
2021/12/10 11:13:36;;;;;;;4.68;3.92;;;9.00;76.30;;;;;;5174407;27;20551;-58
2021/12/10 11:16:11;;;;;;;4.78;4.30;;;9.00;76.30;;;;;;5149173;27;20198;-58
2021/12/10 11:19:01;;;;;;;4.30;3.90;;;9.00;76.40;;;;;;5161394;27;20066;-58
2021/12/10 11:21:50;;;;;;;4.88;4.18;;;9.00;76.30;;;;;;5166410;27;20046;-58
2021/12/10 11:24:24;;;;;;;4.55;4.15;;;9.00;76.40;;;;;;5168044;27;20038;-58
2021/12/10 11:26:59;;;;;;;4.68;4.15;;;9.00;76.40;;;;;;5156343;27;20398;-60
2021/12/10 11:29:52;;;;;;;4.53;4.03;;;9.00;76.40;;;;;;5176433;27;20042;-59
2021/12/10 11:32:34;;;;;;;4.85;3.60;;;9.00;76.40;;;;;;5174262;27;20477;-60
2021/12/10 11:35:09;;;;;;;4.60;4.20;;;9.00;76.40;;;;;;5148675;27;20151;-60
2021/12/10 11:37:50;;;;;;;4.25;3.85;;;8.90;76.30;;;;;;5137271;27;20150;-58
2021/12/10 11:40:44;;;;;;;4.32;3.88;;;8.90;76.30;;;;;;5157534;27;20125;-60
2021/12/10 11:48:50;;;;;;;4.28;3.88;;;9.00;76.40;;;;;;5156038;27;20051;-57
2021/12/10 11:51:25;;;;;;;4.78;3.75;;;9.00;76.40;;;;;;5157720;27;20050;-57
2021/12/10 11:54:01;;;;;;;4.45;3.83;;;8.90;76.40;;;;;;5163896;27;20046;-58
2021/12/10 11:56:29;;;;;;;;;;;8.90;76.30;;;;;;5155993;27;20133;-58
2021/12/10 11:59:12;;;;;;;4.30;3.50;;;8.90;76.30;;;;;;5175938;27;19971;-58
2021/12/10 12:02:07;;;;;;;4.15;3.58;;;9.00;76.40;;;;;;5175721;27;20041;-57
2021/12/10 12:05:00;;;;;;;4.80;3.95;;;9.00;76.40;;;;;;5176073;27;20403;-57
2021/12/10 12:07:36;;;;;;;4.38;3.72;;;8.90;76.40;;;;;;5172639;27;20532;-61
2021/12/10 12:10:14;;;;;;;4.38;3.95;;;9.00;76.40;;;;;;5163885;27;20053;-59
2021/12/10 12:13:10;;;;;;;4.00;3.50;;;9.00;76.40;;;;;;5166238;27;20088;-60
2021/12/10 12:15:50;;;;;;;4.40;3.90;;;8.90;76.40;;;;;;5163872;27;20075;-57
2021/12/10 12:18:44;;;;;;;4.45;3.60;;;9.00;76.40;;;;;;5161184;27;20046;-59
2021/12/10 12:27:05;;;;;;;3.80;3.40;;;8.90;76.50;;;;;;5175769;27;20091;-58
2021/12/10 12:29:45;;;;;;;5.25;3.50;;;9.00;76.40;;;;;;5176615;27;20042;-59
2021/12/10 12:32:20;;;;;;;4.35;3.50;;;9.00;76.40;;;;;;5173617;27;20034;-60
2021/12/10 12:34:47;;;;;;;3.47;3.17;;;9.10;76.50;;;;;;5175887;27;20037;-57
2021/12/10 12:37:13;;;;;;;5.25;3.85;;;8.90;76.30;;;;;;5176622;27;20549;-59
2021/12/10 12:39:44;;;;;;;4.43;3.45;;;9.00;76.40;;;;;;5172946;27;20061;-59
2021/12/10 12:42:22;;;;;;;5.03;3.53;;;9.00;76.30;;;;;;5165624;27;20468;-58
2021/12/10 12:44:53;;;;;;;4.57;3.10;;;9.00;76.40;;;;;;5175653;27;20046;-57
2021/12/10 12:47:34;;;;;;;5.38;3.75;;;9.00;76.30;;;;;;5155864;27;20122;-59
2021/12/10 12:50:05;;;;;;;5.10;3.40;;;9.00;76.30;;;;;;5158991;27;20049;-57
2021/12/10 12:52:41;;;;;;;3.88;3.25;;;9.00;76.40;;;;;;5166308;27;20050;-59
2021/12/10 12:55:21;;;;;;;4.20;3.80;;;9.00;76.30;;;;;;5167921;27;20087;-59
2021/12/10 12:58:04;;;;;;;3.83;3.17;;;9.00;76.30;;;;;;5159397;27;20038;-60
2021/12/10 13:00:44;;;;;;;4.40;3.30;;;9.00;76.30;;;;;;5171512;27;20038;-59
2021/12/10 13:03:20;;;;;;;4.82;3.30;;;9.00;76.30;;;;;;5171676;27;20068;-58
2021/12/10 13:05:50;;;;;;;;;;;9.00;76.40;;;;;;5171996;27;20149;-59
2021/12/10 13:08:20;;;;;;;3.85;3.40;;;9.00;76.30;;;;;;5161345;27;20313;-60
2021/12/10 13:11:03;;;;;;;5.05;3.20;;;9.00;76.40;;;;;;5151878;27;20568;-60
2021/12/10 13:13:44;;;;;;;4.55;3.55;;;9.00;76.30;;;;;;5171435;27;20427;-59
2021/12/10 13:16:13;;;;;;;3.60;3.28;;;9.00;76.30;;;;;;5171320;27;20098;-58
2021/12/10 13:18:41;;;;;;;3.42;2.92;;;9.00;76.30;;;;;;5148364;27;20046;-59
2021/12/10 13:21:09;;;;;;;3.50;3.20;;;8.90;76.30;;;;;;5151056;27;20047;-59
2021/12/10 13:23:36;;;;;;;3.55;3.25;;;9.00;76.40;;;;;;5151002;27;20045;-57
2021/12/10 13:26:07;;;;;;;4.18;3.63;;;9.00;76.40;;;;;;5150745;27;20047;-60
2021/12/10 13:28:33;;;;;;;3.63;2.80;;;9.00;76.40;;;;;;5150748;27;20053;-59
2021/12/10 13:31:03;;;;;;;4.43;3.35;;;9.00;76.40;;;;;;5146362;27;20085;-58